Time;durP1;ratioP1;P1;durP2;ratioP2;P2;SDS_P1;SDS_P2;PMS_P1;PMS_P2;Temp;Humidity;BMP_temperature;BMP_pressure;BME280_temperature;BME280_humidity;BME280_pressure;Samples;Min_cycle;Max_cycle;Signal;HPM_P1;HPM_P2
2022/04/26 03:36:51;;;;;;;3.53;1.33;;;13.40;99.90;;;;;;4963722;28;20501;-86
2022/04/26 03:42:42;;;;;;;2.28;1.17;;;13.40;99.90;;;;;;4963804;28;20393;-86
2022/04/26 03:45:57;;;;;;;;;;;;;;;;;;;;;
2022/04/26 03:49:12;;;;;;;1.73;1.10;;;13.30;99.90;;;;;;4909723;29;20056;-87
2022/04/26 03:51:48;;;;;;;3.85;1.30;;;13.30;99.90;;;;;;4913916;28;20050;-87
2022/04/26 03:54:16;;;;;;;3.97;1.25;;;13.30;99.90;;;;;;4971358;28;20113;-87
2022/04/26 03:56:45;;;;;;;3.08;1.27;;;13.30;99.90;;;;;;4962596;28;20114;-87
2022/04/26 03:59:40;;;;;;;2.55;1.17;;;13.30;99.90;;;;;;4954990;28;20054;-87
2022/04/26 04:02:16;;;;;;;6.55;1.10;;;13.30;99.90;;;;;;4948277;28;20510;-86
2022/04/26 04:04:51;;;;;;;1.48;0.85;;;13.40;99.90;;;;;;4953616;28;20027;-86
2022/04/26 04:07:20;;;;;;;1.40;0.85;;;13.40;99.90;;;;;;4958996;28;20043;-87
2022/04/26 04:09:56;;;;;;;3.35;1.00;;;13.40;99.90;;;;;;4938657;28;20031;-88
2022/04/26 04:12:28;;;;;;;4.18;1.15;;;13.40;99.90;;;;;;4964688;28;20034;-86
2022/04/26 04:14:54;;;;;;;6.88;1.20;;;13.40;99.90;;;;;;4966536;28;20063;-88
2022/04/26 04:17:20;;;;;;;5.07;1.17;;;13.40;99.90;;;;;;4960051;28;20038;-87
2022/04/26 04:19:51;;;;;;;5.57;1.13;;;13.40;99.90;;;;;;4949229;28;20019;-88
2022/04/26 04:22:32;;;;;;;3.45;1.10;;;13.50;99.90;;;;;;4936870;28;20387;-87
2022/04/26 04:25:01;;;;;;;1.52;1.15;;;13.50;99.90;;;;;;4955716;28;20084;-87
2022/04/26 04:27:32;;;;;;;3.97;0.90;;;13.40;99.90;;;;;;4943250;28;20039;-88
2022/04/26 04:30:03;;;;;;;6.07;0.95;;;13.50;99.90;;;;;;4942170;28;20066;-87
2022/04/26 04:32:32;;;;;;;3.63;1.17;;;13.50;99.90;;;;;;4952087;28;20042;-89
2022/04/26 04:34:58;;;;;;;3.92;1.10;;;13.60;99.90;;;;;;4969221;28;20023;-87
2022/04/26 04:37:29;;;;;;;2.03;1.20;;;13.60;99.90;;;;;;4945115;28;20057;-86
2022/04/26 04:39:59;;;;;;;2.13;0.80;;;13.70;99.90;;;;;;4958733;28;20042;-87
2022/04/26 04:43:09;;;;;;;6.40;1.23;;;13.70;99.90;;;;;;4939998;28;20031;-88
2022/04/26 04:45:19;;;;;;;4.18;1.27;;;13.70;99.90;;;;;;4947732;28;20043;-86
2022/04/26 04:47:45;;;;;;;4.88;1.38;;;13.80;99.90;;;;;;4956995;28;20181;-86
2022/04/26 04:50:11;;;;;;;2.70;1.30;;;13.80;99.90;;;;;;4957410;28;20102;-87
2022/04/26 04:52:42;;;;;;;3.13;1.30;;;13.80;99.90;;;;;;4947208;28;20062;-87
2022/04/26 04:55:14;;;;;;;5.95;1.27;;;13.90;99.90;;;;;;4955893;28;20031;-87
2022/04/26 04:57:39;;;;;;;3.17;1.08;;;14.00;99.90;;;;;;4957985;28;20482;-86
2022/04/26 05:00:07;;;;;;;5.38;1.58;;;14.00;99.90;;;;;;4940870;28;20023;-87
2022/04/26 05:02:35;;;;;;;4.63;1.30;;;14.00;99.90;;;;;;4966037;28;20031;-86
2022/04/26 05:05:01;;;;;;;6.68;1.38;;;14.10;99.90;;;;;;4951184;28;20027;-87
2022/04/26 05:07:29;;;;;;;4.15;1.13;;;14.10;99.90;;;;;;4944678;28;20054;-86
2022/04/26 05:09:58;;;;;;;11.57;1.30;;;14.20;99.90;;;;;;4941930;28;20030;-86
2022/04/26 05:12:36;;;;;;;6.63;1.45;;;14.20;99.90;;;;;;4950680;28;20121;-84
2022/04/26 05:15:02;;;;;;;3.25;1.13;;;14.30;99.90;;;;;;4954316;28;20023;-83
2022/04/26 05:17:29;;;;;;;1.77;1.35;;;14.40;99.90;;;;;;4949340;28;20086;-85
2022/04/26 05:19:55;;;;;;;4.15;1.30;;;14.40;99.90;;;;;;4963028;28;20402;-85
2022/04/26 05:22:23;;;;;;;3.22;1.42;;;14.50;99.90;;;;;;4967004;28;20490;-84
2022/04/26 05:25:01;;;;;;;5.18;1.63;;;14.60;99.90;;;;;;4973037;28;20102;-86
2022/04/26 05:27:34;;;;;;;7.30;1.75;;;14.70;99.90;;;;;;4942310;28;20043;-85
2022/04/26 05:30:03;;;;;;;4.07;1.35;;;14.80;99.90;;;;;;4958652;28;20022;-86
2022/04/26 05:32:32;;;;;;;3.65;1.20;;;14.90;99.90;;;;;;4952702;28;20035;-84
2022/04/26 05:35:03;;;;;;;8.80;1.45;;;15.00;99.90;;;;;;4971878;28;20031;-84
2022/04/26 05:37:40;;;;;;;6.97;1.83;;;15.20;99.90;;;;;;4966420;28;20065;-84
2022/04/26 05:40:10;;;;;;;5.70;1.52;;;15.20;99.90;;;;;;4944026;28;20039;-84
2022/04/26 05:42:40;;;;;;;4.18;1.58;;;15.40;99.90;;;;;;4964942;28;20027;-83
2022/04/26 05:45:06;;;;;;;7.80;1.15;;;15.50;99.90;;;;;;4970412;28;20026;-83
2022/04/26 05:47:32;;;;;;;4.45;1.40;;;15.50;99.90;;;;;;4969010;28;20375;-82
2022/04/26 05:49:58;;;;;;;4.30;1.42;;;15.60;99.90;;;;;;4971740;28;20019;-85
2022/04/26 05:52:26;;;;;;;5.22;1.33;;;15.60;99.90;;;;;;4968953;28;20544;-84
2022/04/26 05:54:52;;;;;;;3.78;1.42;;;15.70;99.90;;;;;;4970518;28;20027;-86
2022/04/26 05:57:18;;;;;;;5.72;1.90;;;15.80;99.90;;;;;;4962352;28;20090;-81
2022/04/26 05:59:44;;;;;;;7.47;1.85;;;16.00;99.90;;;;;;4955514;28;20131;-83
2022/04/26 06:02:10;;;;;;;9.38;2.20;;;16.10;99.90;;;;;;4963035;28;20035;-83
2022/04/26 06:04:38;;;;;;;6.80;1.88;;;16.20;99.90;;;;;;4939233;28;20123;-81
2022/04/26 06:07:03;;;;;;;7.05;1.65;;;16.20;99.90;;;;;;4951266;28;20039;-82
2022/04/26 06:09:29;;;;;;;5.00;2.28;;;16.30;99.90;;;;;;4967367;28;20474;-81
2022/04/26 06:11:56;;;;;;;2.83;1.45;;;16.30;99.90;;;;;;4967746;28;20467;-80
2022/04/26 06:14:22;;;;;;;3.63;1.50;;;16.30;99.90;;;;;;4970105;28;20391;-82
2022/04/26 06:16:47;;;;;;;3.67;1.40;;;16.20;99.90;;;;;;4965709;28;20023;-82
2022/04/26 06:19:13;;;;;;;7.35;1.55;;;16.30;99.90;;;;;;4968266;28;20030;-82
2022/04/26 06:21:39;;;;;;;5.43;1.40;;;16.40;99.90;;;;;;4951009;28;20023;-83
2022/04/26 06:24:05;;;;;;;5.05;1.50;;;16.60;99.90;;;;;;4971243;28;20030;-83
2022/04/26 06:26:31;;;;;;;5.55;1.38;;;16.90;99.90;;;;;;4950693;28;20023;-83
2022/04/26 06:29:03;;;;;;;6.82;1.30;;;17.10;99.90;;;;;;4971513;28;20404;-80
2022/04/26 06:31:31;;;;;;;4.72;1.60;;;17.20;99.90;;;;;;4967710;28;20081;-79
2022/04/26 06:33:57;;;;;;;4.03;1.33;;;17.30;99.90;;;;;;4957420;28;20039;-79
2022/04/26 06:36:23;;;;;;;3.45;1.42;;;17.20;99.90;;;;;;4952054;28;20371;-82
2022/04/26 06:38:49;;;;;;;5.07;1.40;;;17.20;99.90;;;;;;4953793;28;20066;-81
2022/04/26 06:41:15;;;;;;;2.95;1.30;;;17.20;99.90;;;;;;4969364;28;20034;-79
2022/04/26 06:43:41;;;;;;;6.72;1.48;;;17.40;99.90;;;;;;4971011;28;20037;-79
2022/04/26 06:46:06;;;;;;;4.53;1.60;;;17.50;99.90;;;;;;4968302;28;20035;-81
2022/04/26 06:48:32;;;;;;;3.85;1.65;;;17.60;99.90;;;;;;4954941;28;20125;-81
2022/04/26 06:50:58;;;;;;;3.65;1.08;;;17.80;99.90;;;;;;4966399;28;20023;-79
2022/04/26 06:53:24;;;;;;;2.92;1.35;;;17.90;99.90;;;;;;4949384;28;20051;-79
2022/04/26 06:55:50;;;;;;;3.47;1.50;;;17.60;99.90;;;;;;4954825;28;20496;-79
2022/04/26 06:58:17;;;;;;;7.45;1.80;;;17.30;99.90;;;;;;4950082;28;20045;-78
2022/04/26 07:00:43;;;;;;;3.55;1.52;;;17.30;99.90;;;;;;4967610;28;20042;-78
2022/04/26 07:03:09;;;;;;;7.65;1.52;;;17.30;99.90;;;;;;4968129;28;20070;-80
2022/04/26 07:05:38;;;;;;;6.35;1.27;;;17.40;99.90;;;;;;4970959;28;20089;-86
2022/04/26 07:08:07;;;;;;;3.67;1.10;;;17.40;99.90;;;;;;4945600;28;20642;-83
2022/04/26 07:10:34;;;;;;;4.43;1.48;;;17.60;99.90;;;;;;4968687;28;20023;-87
2022/04/26 07:13:00;;;;;;;7.20;1.60;;;18.00;99.90;;;;;;4963932;28;20544;-82
2022/04/26 07:15:26;;;;;;;2.85;1.13;;;18.30;99.90;;;;;;4967109;28;20035;-80
2022/04/26 07:17:54;;;;;;;4.57;1.60;;;18.50;99.90;;;;;;4971022;28;20023;-81
2022/04/26 07:20:20;;;;;;;4.68;1.25;;;18.70;99.90;;;;;;4970295;28;20560;-79
2022/04/26 07:22:46;;;;;;;7.60;1.60;;;19.00;99.90;;;;;;4969661;28;20113;-79
2022/04/26 07:25:12;;;;;;;4.35;1.63;;;19.00;99.90;;;;;;4971004;28;20087;-81
2022/04/26 07:27:38;;;;;;;5.07;1.50;;;19.10;99.90;;;;;;4967246;28;20378;-79
2022/04/26 07:30:06;;;;;;;3.72;1.40;;;19.30;99.90;;;;;;4954046;28;20063;-82
2022/04/26 07:35:23;;;;;;;3.88;1.27;;;19.70;99.90;;;;;;4965793;28;20034;-80
2022/04/26 07:37:49;;;;;;;5.45;1.75;;;19.90;99.90;;;;;;4951892;28;20019;-82
2022/04/26 07:40:18;;;;;;;6.95;1.90;;;20.20;99.90;;;;;;4967307;28;20026;-80
2022/04/26 07:42:43;;;;;;;5.28;1.58;;;20.10;99.90;;;;;;4949131;28;20027;-80
2022/04/26 07:45:09;;;;;;;6.85;2.00;;;20.10;99.90;;;;;;4964882;28;20454;-81
2022/04/26 07:47:36;;;;;;;6.53;1.90;;;20.00;99.90;;;;;;4949119;28;20039;-80
2022/04/26 07:50:03;;;;;;;6.40;2.38;;;19.80;99.90;;;;;;4967704;28;20027;-80
2022/04/26 07:52:29;;;;;;;6.97;2.17;;;19.40;99.90;;;;;;4969436;28;20047;-80
2022/04/26 07:54:55;;;;;;;5.38;1.92;;;19.30;99.90;;;;;;4968783;28;20528;-82
2022/04/26 07:57:23;;;;;;;6.85;2.03;;;19.30;99.90;;;;;;4953398;28;20023;-80
2022/04/26 07:59:49;;;;;;;7.20;1.80;;;19.30;99.90;;;;;;4960945;28;20043;-82
2022/04/26 08:02:15;;;;;;;4.07;1.80;;;19.30;99.90;;;;;;4970573;28;20030;-80
2022/04/26 08:04:41;;;;;;;9.02;2.10;;;19.30;99.90;;;;;;4968783;28;20023;-81
2022/04/26 08:07:08;;;;;;;6.65;1.70;;;19.50;99.90;;;;;;4967623;28;20046;-80
2022/04/26 08:09:36;;;;;;;6.57;1.88;;;19.50;99.90;;;;;;4960783;28;20023;-79
2022/04/26 08:12:02;;;;;;;6.13;2.10;;;19.60;99.90;;;;;;4949180;28;20134;-80
2022/04/26 08:14:29;;;;;;;5.38;1.73;;;19.40;99.90;;;;;;4971391;28;20027;-79
2022/04/26 08:16:55;;;;;;;5.60;1.73;;;19.40;99.90;;;;;;4946460;28;20375;-78
2022/04/26 08:19:21;;;;;;;5.95;1.73;;;19.50;99.90;;;;;;4964723;28;20025;-79
2022/04/26 08:21:47;;;;;;;7.38;2.00;;;19.70;99.90;;;;;;4964140;28;20026;-80
2022/04/26 08:29:41;;;;;;;6.82;1.98;;;20.10;99.90;;;;;;4967257;28;20092;-80
2022/04/26 08:32:10;;;;;;;9.98;2.75;;;20.10;99.90;;;;;;4952509;28;20035;-79
2022/04/26 08:34:36;;;;;;;6.05;2.00;;;20.20;99.90;;;;;;4955003;28;20167;-81
2022/04/26 08:37:02;;;;;;;6.20;2.05;;;20.30;99.90;;;;;;4965142;28;20047;-81
2022/04/26 08:39:27;;;;;;;5.97;1.90;;;20.10;99.90;;;;;;4954489;28;20022;-80
2022/04/26 08:41:58;;;;;;;6.53;2.33;;;19.90;99.90;;;;;;4967279;28;20499;-79
2022/04/26 08:44:29;;;;;;;8.85;2.35;;;19.70;99.90;;;;;;4970865;28;20552;-80
2022/04/26 08:52:26;;;;;;;5.63;1.92;;;19.20;99.90;;;;;;4968609;28;20038;-79
2022/04/26 08:54:52;;;;;;;5.82;1.85;;;18.90;99.90;;;;;;4965724;28;20438;-79
2022/04/26 08:57:18;;;;;;;8.20;2.38;;;18.60;99.90;;;;;;4969078;28;20111;-78
2022/04/26 08:59:48;;;;;;;8.52;2.75;;;18.40;99.90;;;;;;4970932;28;20108;-78
2022/04/26 09:02:18;;;;;;;11.88;2.40;;;18.40;99.90;;;;;;4971250;28;20110;-79
2022/04/26 09:04:45;;;;;;;5.97;2.30;;;18.30;99.90;;;;;;4963573;28;20023;-77
2022/04/26 09:07:12;;;;;;;6.18;2.05;;;18.20;99.90;;;;;;4968144;28;20318;-78
2022/04/26 09:09:39;;;;;;;9.25;2.45;;;18.10;99.90;;;;;;4957539;28;20062;-78
2022/04/26 09:12:10;;;;;;;8.63;2.15;;;18.10;99.90;;;;;;4947896;28;20035;-77
2022/04/26 09:14:50;;;;;;;5.60;2.28;;;18.30;99.90;;;;;;4959210;28;20050;-78
2022/04/26 09:17:18;;;;;;;3.15;2.10;;;18.70;99.90;;;;;;4947557;28;20058;-77
2022/04/26 09:19:49;;;;;;;6.70;2.20;;;19.10;99.90;;;;;;4970746;28;20028;-83
2022/04/26 09:22:20;;;;;;;7.75;2.05;;;19.50;99.90;;;;;;4968639;28;20034;-82
2022/04/26 09:25:05;;;;;;;8.35;2.38;;;19.90;99.90;;;;;;4970084;28;20034;-79
2022/04/26 09:27:36;;;;;;;10.63;2.13;;;20.20;99.90;;;;;;4969743;28;20034;-77
2022/04/26 09:30:09;;;;;;;11.48;2.60;;;20.30;99.90;;;;;;4969574;28;20035;-77
2022/04/26 09:32:49;;;;;;;4.63;2.25;;;20.40;99.90;;;;;;4971246;28;20018;-77
2022/04/26 09:35:19;;;;;;;8.15;2.53;;;20.30;99.90;;;;;;4971427;28;20018;-76
2022/04/26 09:37:45;;;;;;;6.78;2.63;;;20.10;99.90;;;;;;4952132;28;20026;-79
2022/04/26 09:40:11;;;;;;;9.10;2.45;;;19.80;99.90;;;;;;4956394;28;20027;-77
2022/04/26 09:42:42;;;;;;;7.20;2.33;;;19.60;99.90;;;;;;4962282;28;20497;-76
2022/04/26 09:45:10;;;;;;;5.80;2.25;;;19.50;99.90;;;;;;4957599;28;20051;-79
2022/04/26 09:47:43;;;;;;;10.80;2.58;;;19.30;99.90;;;;;;4961986;28;20498;-79
2022/04/26 09:50:14;;;;;;;14.07;2.40;;;19.10;99.90;;;;;;4970148;28;20126;-83
2022/04/26 09:52:41;;;;;;;8.13;2.35;;;18.50;99.90;;;;;;4969665;28;20046;-77
2022/04/26 09:55:09;;;;;;;6.25;2.58;;;17.60;99.90;;;;;;4960847;28;20038;-77
2022/04/26 09:57:38;;;;;;;6.70;2.40;;;16.80;99.90;;;;;;4965694;28;20394;-77
2022/04/26 10:00:10;;;;;;;12.63;3.13;;;16.30;99.90;;;;;;4971896;28;20039;-78
2022/04/26 10:02:38;;;;;;;11.48;2.45;;;15.60;99.90;;;;;;4959173;28;20070;-78
2022/04/26 10:05:07;;;;;;;10.95;2.42;;;15.30;99.90;;;;;;4956219;28;20423;-78
2022/04/26 10:07:40;;;;;;;11.55;2.92;;;15.10;99.90;;;;;;4945445;28;20040;-80
2022/04/26 10:10:06;;;;;;;12.48;3.35;;;14.80;99.90;;;;;;4957389;28;20035;-80
2022/04/26 10:12:33;;;;;;;11.63;3.10;;;14.60;99.90;;;;;;4966971;28;20023;-80
2022/04/26 10:15:01;;;;;;;10.38;3.78;;;14.50;99.90;;;;;;4968328;28;20028;-78
2022/04/26 10:17:32;;;;;;;10.38;4.10;;;14.60;99.90;;;;;;4955258;28;20062;-80
2022/04/26 10:20:00;;;;;;;12.53;4.13;;;14.80;99.90;;;;;;4936903;28;20019;-79
2022/04/26 10:22:52;;;;;;;9.40;3.15;;;15.00;99.90;;;;;;4959521;28;20065;-80
2022/04/26 10:25:21;;;;;;;9.00;3.97;;;15.40;99.90;;;;;;4940516;28;20039;-80
2022/04/26 10:28:28;;;;;;;12.77;4.97;;;15.50;99.90;;;;;;4949693;28;20081;-80
2022/04/26 10:30:57;;;;;;;13.32;3.95;;;15.50;99.90;;;;;;4950438;28;20034;-80
2022/04/26 10:33:43;;;;;;;12.43;3.45;;;15.70;99.90;;;;;;4972399;28;20018;-80
2022/04/26 10:36:21;;;;;;;19.23;4.43;;;15.70;99.90;;;;;;4949832;28;20363;-80
2022/04/26 10:39:05;;;;;;;13.43;4.05;;;15.50;99.90;;;;;;4956680;28;20023;-80
2022/04/26 10:41:42;;;;;;;12.75;3.78;;;15.60;99.90;;;;;;4961480;28;20030;-80
2022/04/26 10:44:16;;;;;;;12.02;3.90;;;15.90;99.90;;;;;;4973487;28;20481;-81
2022/04/26 10:47:00;;;;;;;11.15;3.67;;;16.20;99.90;;;;;;4945400;28;20440;-80
2022/04/26 10:49:32;;;;;;;12.27;3.92;;;16.40;99.90;;;;;;4953327;28;20041;-80
2022/04/26 10:52:18;;;;;;;11.40;4.18;;;16.50;99.90;;;;;;4962439;28;20618;-80
2022/04/26 10:54:58;;;;;;;9.05;4.00;;;16.40;99.90;;;;;;4971420;28;20026;-80
2022/04/26 10:57:48;;;;;;;10.57;3.55;;;16.20;99.90;;;;;;4960360;28;20086;-79
2022/04/26 11:00:32;;;;;;;10.18;3.58;;;16.40;99.90;;;;;;4951407;28;20085;-81
2022/04/26 11:03:03;;;;;;;14.55;4.28;;;16.40;99.90;;;;;;4948208;28;20521;-81
2022/04/26 11:05:32;;;;;;;11.27;4.07;;;16.80;99.90;;;;;;4949481;28;20070;-83
2022/04/26 11:08:04;;;;;;;8.98;3.78;;;17.20;99.90;;;;;;4950657;28;20081;-79
2022/04/26 11:11:00;;;;;;;11.02;4.07;;;17.80;99.90;;;;;;4970086;28;20023;-85
2022/04/26 11:13:32;;;;;;;9.05;3.70;;;18.20;99.90;;;;;;4957870;28;20402;-78
2022/04/26 11:16:08;;;;;;;11.87;3.80;;;18.70;99.90;;;;;;4959333;28;20394;-80
2022/04/26 11:18:34;;;;;;;8.63;3.65;;;18.60;99.90;;;;;;4971328;28;20503;-83
2022/04/26 11:21:01;;;;;;;10.20;3.83;;;18.60;99.90;;;;;;4964805;28;20047;-83
2022/04/26 11:29:22;;;;;;;7.43;3.53;;;20.40;99.90;;;;;;4953522;28;20049;-80
2022/04/26 11:31:48;;;;;;;11.98;3.97;;;19.90;99.90;;;;;;4962065;28;20042;-80
2022/04/26 11:34:14;;;;;;;8.35;3.50;;;19.70;99.90;;;;;;4972704;28;20058;-80
2022/04/26 11:36:40;;;;;;;14.48;3.88;;;19.90;99.90;;;;;;4961220;28;20046;-80
2022/04/26 11:39:05;;;;;;;13.15;3.80;;;20.40;99.90;;;;;;4952862;28;20031;-80
2022/04/26 11:41:31;;;;;;;12.95;3.55;;;20.80;99.90;;;;;;4960886;28;20019;-80
2022/04/26 11:44:06;;;;;;;11.65;3.35;;;20.80;99.90;;;;;;4972623;28;20560;-80
2022/04/26 11:46:32;;;;;;;9.73;4.18;;;20.30;99.90;;;;;;4945443;28;20625;-81
2022/04/26 11:48:59;;;;;;;13.60;4.03;;;19.70;99.90;;;;;;4955044;28;20058;-81
2022/04/26 11:51:25;;;;;;;11.43;3.85;;;20.10;99.90;;;;;;4944136;28;20023;-83
2022/04/26 11:53:51;;;;;;;13.70;3.33;;;20.60;99.90;;;;;;4952879;28;20106;-82
2022/04/26 11:56:21;;;;;;;8.93;3.90;;;20.60;99.90;;;;;;4941886;28;20038;-84
2022/04/26 11:58:47;;;;;;;11.02;3.60;;;20.80;99.90;;;;;;4974377;28;20022;-90
2022/04/26 12:01:15;;;;;;;15.05;5.25;;;20.90;99.90;;;;;;4960137;28;20500;-83
2022/04/26 12:03:52;;;;;;;11.07;4.30;;;21.10;99.90;;;;;;4954370;28;20034;-82
2022/04/26 12:06:18;;;;;;;11.20;3.90;;;21.50;99.90;;;;;;4961437;28;20022;-82
2022/04/26 12:08:47;;;;;;;12.02;3.92;;;22.00;99.90;;;;;;4954344;28;20031;-88
2022/04/26 12:11:16;;;;;;;10.32;3.97;;;21.40;99.90;;;;;;4944744;28;20501;-82
2022/04/26 12:13:42;;;;;;;10.95;3.63;;;20.80;99.90;;;;;;4971499;28;20050;-84
2022/04/26 12:16:20;;;;;;;15.00;4.88;;;20.50;99.90;;;;;;4948919;28;20121;-83
2022/04/26 12:18:53;;;;;;;12.75;4.38;;;20.10;99.90;;;;;;4957940;28;20034;-86
2022/04/26 12:21:20;;;;;;;12.45;4.32;;;20.10;99.90;;;;;;4946149;28;20023;-84
2022/04/26 12:23:46;;;;;;;17.27;4.25;;;19.80;99.90;;;;;;4969276;28;20482;-87
2022/04/26 12:26:11;;;;;;;16.52;4.43;;;19.10;99.90;;;;;;4975971;28;20289;-92
2022/04/26 12:28:49;;;;;;;11.80;4.13;;;18.60;99.90;;;;;;4952325;28;20086;-94
2022/04/26 12:31:25;;;;;;;15.40;3.95;;;18.60;99.90;;;;;;4983540;28;20031;-91
2022/04/26 12:34:13;;;;;;;8.18;3.85;;;18.50;99.90;;;;;;4957205;28;20028;-89
2022/04/26 12:36:53;;;;;;;8.32;3.60;;;18.30;99.90;;;;;;4971651;28;20023;-87
2022/04/26 12:39:21;;;;;;;12.20;3.83;;;17.90;99.90;;;;;;5195908;23;20478;-89
2022/04/26 12:41:51;;;;;;;12.93;4.47;;;17.50;99.90;;;;;;4978684;28;20026;-93
2022/04/26 12:44:20;;;;;;;9.05;3.85;;;17.40;99.90;;;;;;4994657;28;20039;-94
2022/04/26 12:52:39;;;;;;;13.57;4.10;;;17.70;99.90;;;;;;4974464;28;20037;-93
2022/04/26 12:55:05;;;;;;;9.75;3.42;;;17.30;99.90;;;;;;4960892;28;20035;-89
2022/04/26 12:57:30;;;;;;;11.45;3.70;;;17.30;99.90;;;;;;4978433;28;20042;-92
2022/04/26 12:59:56;;;;;;;12.27;4.45;;;17.50;99.90;;;;;;4981852;28;20029;-94
2022/04/26 13:02:22;;;;;;;15.30;4.95;;;17.50;99.90;;;;;;4980471;28;20051;-84
2022/04/26 13:04:54;;;;;;;12.57;4.45;;;17.20;99.90;;;;;;4966563;28;20018;-93
2022/04/26 13:10:06;;;;;;;12.63;5.15;;;17.10;99.90;;;;;;4969018;28;20149;-90
2022/04/26 13:12:33;;;;;;;10.35;4.68;;;17.00;99.90;;;;;;5013369;23;20040;-91
2022/04/26 13:15:00;;;;;;;12.88;4.78;;;17.00;99.90;;;;;;4920583;29;20031;-87
2022/04/26 13:17:26;;;;;;;10.57;4.45;;;16.90;99.90;;;;;;4950397;28;20028;-92
2022/04/26 13:19:52;;;;;;;17.45;4.75;;;17.50;99.90;;;;;;4935321;29;20038;-88
2022/04/26 13:22:21;;;;;;;10.07;3.83;;;18.00;99.90;;;;;;4929184;28;20032;-89
2022/04/26 13:24:47;;;;;;;14.55;4.50;;;18.40;99.90;;;;;;4937096;29;20395;-91
2022/04/26 13:27:13;;;;;;;10.70;3.92;;;18.70;99.90;;;;;;4944709;28;20127;-89
2022/04/26 13:29:45;;;;;;;15.10;4.78;;;19.40;99.90;;;;;;4951073;29;20054;-93
2022/04/26 13:32:11;;;;;;;13.70;3.95;;;20.50;99.90;;;;;;4960301;28;20028;-95
2022/04/26 13:34:37;;;;;;;13.50;4.60;;;22.10;99.90;;;;;;4945238;28;20059;-93
2022/04/26 13:37:07;;;;;;;8.95;4.10;;;21.80;99.90;;;;;;4935949;29;20020;-94
2022/04/26 13:39:34;;;;;;;10.48;3.80;;;21.20;99.90;;;;;;4942033;29;20023;-91
2022/04/26 13:42:01;;;;;;;12.23;4.40;;;21.30;99.90;;;;;;4939881;28;20016;-90
2022/04/26 13:44:27;;;;;;;13.07;4.68;;;22.10;99.90;;;;;;4963179;28;20149;-89
2022/04/26 13:46:57;;;;;;;15.02;4.70;;;22.30;99.90;;;;;;4931250;29;20028;-91
2022/04/26 13:49:24;;;;;;;9.93;4.00;;;22.20;99.90;;;;;;4930482;29;20051;-93
2022/04/26 13:51:50;;;;;;;10.23;5.13;;;22.10;99.90;;;;;;4937750;28;20031;-84
2022/04/26 13:54:19;;;;;;;17.20;5.93;;;21.00;99.90;;;;;;4940095;29;20074;-96
2022/04/26 13:56:49;;;;;;;19.58;6.65;;;19.70;99.90;;;;;;4949320;28;20023;-89
2022/04/26 13:59:18;;;;;;;16.27;6.68;;;18.50;99.90;;;;;;4930219;28;20039;-85
2022/04/26 14:01:44;;;;;;;20.60;7.47;;;17.90;99.90;;;;;;4944600;28;20053;-87
2022/04/26 14:04:09;;;;;;;17.13;8.35;;;17.80;99.90;;;;;;4934978;29;20482;-86
2022/04/26 14:06:35;;;;;;;21.15;8.48;;;17.50;99.90;;;;;;4927663;29;20542;-84
2022/04/26 14:09:01;;;;;;;16.45;7.55;;;17.10;99.90;;;;;;4939649;28;20031;-86
2022/04/26 14:11:26;;;;;;;14.82;7.57;;;17.10;99.90;;;;;;4941041;28;20505;-86
2022/04/26 14:22:05;;;;;;;26.08;7.63;;;18.20;99.90;;;;;;4941215;28;20051;-85
2022/04/26 14:24:30;;;;;;;29.23;8.15;;;18.40;99.90;;;;;;4937932;29;20028;-85
2022/04/26 14:26:57;;;;;;;21.40;7.90;;;17.90;99.90;;;;;;4943808;28;20029;-86
2022/04/26 14:29:23;;;;;;;20.95;8.40;;;17.60;99.90;;;;;;4938487;29;20066;-86
2022/04/26 14:31:52;;;;;;;27.08;8.15;;;17.50;99.90;;;;;;4946933;28;20462;-86
2022/04/26 14:34:18;;;;;;;23.90;7.35;;;18.00;99.90;;;;;;4931385;29;20665;-87
2022/04/26 14:36:44;;;;;;;16.00;6.95;;;18.40;99.90;;;;;;4943375;28;20027;-86
2022/04/26 14:39:12;;;;;;;15.50;6.55;;;18.60;99.90;;;;;;4947855;28;20035;-86
2022/04/26 14:41:39;;;;;;;13.63;6.97;;;18.90;99.90;;;;;;4941332;28;20016;-87
2022/04/26 14:44:06;;;;;;;18.52;7.10;;;19.30;99.90;;;;;;4945854;28;20482;-87
2022/04/26 14:46:33;;;;;;;13.30;6.43;;;19.90;99.90;;;;;;4941049;28;20094;-87
2022/04/26 14:48:59;;;;;;;17.02;6.50;;;21.30;99.90;;;;;;4922801;29;20028;-84
2022/04/26 14:51:24;;;;;;;19.38;6.70;;;23.50;99.90;;;;;;4924844;29;20368;-87
2022/04/26 14:53:51;;;;;;;14.73;6.78;;;24.40;99.90;;;;;;4941037;28;20016;-88
2022/04/26 14:56:16;;;;;;;17.23;6.25;;;24.20;99.90;;;;;;4927540;29;20070;-89
2022/04/26 14:58:42;;;;;;;19.25;5.53;;;23.60;99.90;;;;;;4934596;29;20130;-90
2022/04/26 15:01:08;;;;;;;14.10;6.38;;;22.70;99.90;;;;;;4930069;29;20280;-85
2022/04/26 15:03:34;;;;;;;14.20;6.28;;;22.00;99.90;;;;;;4940201;29;20023;-87
2022/04/26 15:06:03;;;;;;;16.60;5.90;;;21.70;99.90;;;;;;4940744;28;20475;-87
2022/04/26 15:11:13;;;;;;;11.82;5.80;;;21.40;99.90;;;;;;4947624;28;20062;-88
2022/04/26 15:16:42;;;;;;;11.68;5.80;;;21.30;99.90;;;;;;4944350;28;20089;-90
2022/04/26 15:19:11;;;;;;;16.08;6.22;;;21.10;99.90;;;;;;4954474;29;20031;-88
2022/04/26 15:21:37;;;;;;;14.60;6.43;;;20.90;99.90;;;;;;4943311;28;20483;-88
2022/04/26 15:24:04;;;;;;;19.30;6.93;;;20.90;99.90;;;;;;4929490;29;20104;-87
2022/04/26 15:26:30;;;;;;;22.52;7.53;;;20.80;99.90;;;;;;4929284;29;20031;-88
2022/04/26 15:28:58;;;;;;;16.77;6.80;;;20.80;99.90;;;;;;4933730;29;20077;-88
2022/04/26 15:31:24;;;;;;;13.25;5.35;;;21.10;99.90;;;;;;4934670;28;20404;-91
2022/04/26 15:33:51;;;;;;;19.15;7.20;;;21.80;99.90;;;;;;4922003;29;20028;-89
2022/04/26 15:36:18;;;;;;;12.30;5.00;;;23.60;99.90;;;;;;4941462;28;20463;-89
2022/04/26 15:38:45;;;;;;;16.60;5.00;;;26.20;99.90;;;;;;4934902;29;20035;-88
2022/04/26 15:41:12;;;;;;;13.40;4.82;;;28.60;99.90;;;;;;4913111;29;20023;-87
2022/04/26 15:43:39;;;;;;;9.43;4.88;;;30.30;99.90;;;;;;4926020;28;20031;-86
2022/04/26 15:46:10;;;;;;;9.95;5.18;;;31.30;99.90;;;;;;4943308;28;20042;-87
2022/04/26 15:48:44;;;;;;;12.75;4.95;;;31.10;99.90;;;;;;4948536;28;20474;-88
2022/04/26 15:51:10;;;;;;;12.00;4.70;;;29.40;99.90;;;;;;4944470;28;20031;-88
2022/04/26 15:53:35;;;;;;;9.75;4.30;;;27.80;99.90;;;;;;4939420;28;20023;-86
2022/04/26 15:56:01;;;;;;;12.85;4.72;;;26.90;99.90;;;;;;4923076;29;20114;-87
2022/04/26 15:58:27;;;;;;;15.30;4.72;;;26.10;99.90;;;;;;4925714;29;20398;-88
2022/04/26 16:00:55;;;;;;;9.85;4.60;;;25.40;99.90;;;;;;4939025;28;20039;-87
2022/04/26 16:03:21;;;;;;;11.45;4.13;;;25.20;99.90;;;;;;4924669;29;20058;-89
2022/04/26 16:05:47;;;;;;;9.93;3.90;;;25.50;99.90;;;;;;4940327;28;20028;-88
2022/04/26 16:08:14;;;;;;;9.30;3.75;;;26.70;99.90;;;;;;4953490;29;20474;-90
2022/04/26 16:21:39;;;;;;;19.73;6.68;;;28.70;99.90;;;;;;4939913;28;20040;-85
2022/04/26 16:24:05;;;;;;;18.48;6.55;;;26.70;99.90;;;;;;4937463;28;20031;-87
2022/04/26 16:26:34;;;;;;;18.77;6.78;;;25.00;99.90;;;;;;4938694;28;20020;-83
2022/04/26 16:29:01;;;;;;;23.17;7.85;;;23.90;99.90;;;;;;4931835;28;20693;-83
2022/04/26 16:31:30;;;;;;;23.23;6.57;;;23.00;99.90;;;;;;4942561;28;20035;-84
2022/04/26 16:34:02;;;;;;;37.15;7.85;;;22.70;99.90;;;;;;4938049;29;20055;-82
2022/04/26 16:36:30;;;;;;;25.17;7.90;;;23.30;99.90;;;;;;4937699;28;20020;-85
2022/04/26 16:39:00;;;;;;;19.58;7.30;;;23.20;99.90;;;;;;4937621;28;20307;-84
2022/04/26 16:41:26;;;;;;;17.45;7.35;;;22.80;99.90;;;;;;4925139;29;20422;-87
2022/04/26 16:43:52;;;;;;;19.80;7.75;;;22.30;99.90;;;;;;4931272;28;20350;-84
2022/04/26 16:46:20;;;;;;;16.55;7.72;;;22.00;99.90;;;;;;4924911;29;20118;-82
2022/04/26 16:48:46;;;;;;;18.60;8.93;;;21.90;99.90;;;;;;4921227;29;20040;-83
2022/04/26 16:51:14;;;;;;;19.50;8.75;;;21.00;99.90;;;;;;4940289;28;20386;-83
2022/04/26 16:53:40;;;;;;;21.92;9.48;;;20.10;99.90;;;;;;4921546;29;20151;-85
2022/04/26 16:56:06;;;;;;;15.98;9.70;;;19.20;99.90;;;;;;4938479;28;20032;-87
2022/04/26 16:58:32;;;;;;;19.85;10.43;;;18.50;99.90;;;;;;4938188;29;20603;-85
2022/04/26 17:00:58;;;;;;;20.63;9.48;;;18.10;99.90;;;;;;4938525;28;20098;-86
2022/04/26 17:03:24;;;;;;;20.60;10.25;;;17.90;99.90;;;;;;4944909;29;20024;-88
2022/04/26 17:05:53;;;;;;;22.00;9.68;;;17.90;99.90;;;;;;4927346;28;20032;-84
2022/04/26 17:08:19;;;;;;;29.73;9.85;;;17.80;99.90;;;;;;4934268;29;20055;-84
2022/04/26 17:10:47;;;;;;;35.28;10.70;;;17.40;99.90;;;;;;4923305;28;20081;-82
2022/04/26 17:13:14;;;;;;;24.75;10.80;;;17.00;99.90;;;;;;4933991;29;20038;-82
2022/04/26 17:15:40;;;;;;;23.20;11.23;;;16.80;99.90;;;;;;4948642;28;20122;-82
2022/04/26 17:18:06;;;;;;;26.88;11.63;;;16.40;99.90;;;;;;4945263;28;20038;-85
2022/04/26 17:20:33;;;;;;;26.35;13.27;;;16.00;99.90;;;;;;4940774;28;20028;-84
2022/04/26 17:23:00;;;;;;;31.52;12.07;;;15.70;99.90;;;;;;4942007;29;20475;-84
2022/04/26 17:25:26;;;;;;;29.55;13.45;;;15.40;99.90;;;;;;4939842;28;20654;-84